Time;durP1;ratioP1;P1;durP2;ratioP2;P2;SDS_P1;SDS_P2;PMS_P1;PMS_P2;Temp;Humidity;BMP_temperature;BMP_pressure;BME280_temperature;BME280_humidity;BME280_pressure;Samples;Min_cycle;Max_cycle;Signal;HPM_P1;HPM_P2
2023/09/08 00:02:13;;;;;;;11.40;9.73;;;18.10;99.90;;;;;;5053914;28;20025;-64
2023/09/08 00:04:38;;;;;;;13.02;9.68;;;18.00;99.90;;;;;;5036159;28;20094;-64
2023/09/08 00:07:04;;;;;;;12.23;9.32;;;18.00;99.90;;;;;;5053059;28;20033;-64
2023/09/08 00:09:30;;;;;;;11.80;9.63;;;18.00;99.90;;;;;;5053162;28;20036;-64
2023/09/08 00:11:56;;;;;;;11.98;9.77;;;18.00;99.90;;;;;;5036133;28;20036;-64
2023/09/08 00:14:21;;;;;;;15.40;9.77;;;18.00;99.90;;;;;;5052667;28;20114;-64
2023/09/08 00:16:48;;;;;;;11.55;9.57;;;18.00;99.90;;;;;;5043287;28;20454;-64
2023/09/08 00:19:14;;;;;;;12.43;10.00;;;18.00;99.90;;;;;;5053826;28;20037;-64
2023/09/08 00:21:39;;;;;;;13.90;11.02;;;18.00;99.90;;;;;;5052810;28;20482;-64
2023/09/08 00:24:05;;;;;;;14.27;9.85;;;18.00;99.90;;;;;;5049733;28;20122;-64
2023/09/08 00:26:32;;;;;;;10.27;7.93;;;18.00;99.90;;;;;;5035930;28;20052;-64
2023/09/08 00:28:57;;;;;;;11.98;10.43;;;17.90;99.90;;;;;;5018373;28;20045;-64
2023/09/08 00:31:23;;;;;;;12.88;10.48;;;17.90;99.90;;;;;;5053301;28;20116;-64
2023/09/08 00:33:49;;;;;;;11.82;10.38;;;17.90;99.90;;;;;;5035321;28;20470;-64
2023/09/08 00:36:15;;;;;;;11.05;9.55;;;17.90;99.90;;;;;;5051501;28;20099;-64
2023/09/08 00:38:41;;;;;;;12.85;9.98;;;17.90;99.90;;;;;;5052230;28;20041;-64
2023/09/08 00:41:07;;;;;;;11.52;8.95;;;17.90;99.90;;;;;;5053218;28;20379;-64
2023/09/08 00:43:33;;;;;;;10.88;8.82;;;17.80;99.90;;;;;;5050908;28;20043;-64
2023/09/08 00:46:00;;;;;;;10.90;9.48;;;17.80;99.90;;;;;;5053576;28;20037;-64
2023/09/08 00:48:26;;;;;;;15.43;9.82;;;17.80;99.90;;;;;;5035186;28;20159;-65
2023/09/08 00:50:52;;;;;;;10.93;9.45;;;17.80;99.90;;;;;;5052305;28;20517;-64
2023/09/08 00:53:18;;;;;;;11.60;9.82;;;17.80;99.90;;;;;;5035313;28;20080;-64
2023/09/08 00:55:45;;;;;;;11.60;10.30;;;17.70;99.90;;;;;;5034541;28;20065;-64
2023/09/08 00:58:12;;;;;;;11.70;9.40;;;17.80;99.90;;;;;;5035361;28;20029;-64
2023/09/08 01:00:38;;;;;;;12.35;9.70;;;17.70;99.90;;;;;;5053125;28;20124;-64
2023/09/08 01:03:04;;;;;;;12.88;9.38;;;17.70;99.90;;;;;;5034415;28;20119;-64
2023/09/08 01:05:30;;;;;;;12.48;9.52;;;17.70;99.90;;;;;;5034260;28;20048;-64
2023/09/08 01:07:56;;;;;;;11.77;9.70;;;17.70;99.90;;;;;;5052983;28;20045;-64
2023/09/08 01:10:22;;;;;;;11.65;9.02;;;17.70;99.90;;;;;;5051926;28;20045;-64
2023/09/08 01:12:48;;;;;;;11.70;9.82;;;17.60;99.90;;;;;;5052262;28;20052;-64
2023/09/08 01:15:14;;;;;;;10.60;9.27;;;17.60;99.90;;;;;;5048202;28;20041;-64
2023/09/08 01:17:39;;;;;;;12.02;9.43;;;17.70;99.90;;;;;;5051804;28;20033;-64
2023/09/08 01:20:17;;;;;;;10.15;8.30;;;17.60;99.90;;;;;;5051757;28;20037;-64
2023/09/08 01:23:18;;;;;;;10.82;9.70;;;17.60;99.90;;;;;;5034472;28;20410;-64
2023/09/08 01:25:57;;;;;;;12.45;9.43;;;17.60;99.90;;;;;;5051787;28;20445;-64
2023/09/08 01:28:24;;;;;;;10.77;8.93;;;17.60;99.90;;;;;;5051246;28;20094;-64
2023/09/08 01:30:51;;;;;;;11.95;8.55;;;17.50;99.90;;;;;;5050470;28;20052;-64
2023/09/08 01:33:17;;;;;;;12.43;10.00;;;17.50;99.90;;;;;;5052473;28;20041;-64
2023/09/08 01:35:43;;;;;;;10.55;8.45;;;17.50;99.90;;;;;;5050997;28;20095;-64
2023/09/08 01:38:09;;;;;;;11.90;9.20;;;17.50;99.90;;;;;;5051766;28;20040;-64
2023/09/08 01:40:34;;;;;;;13.57;10.07;;;17.40;99.90;;;;;;5052031;28;20112;-64
2023/09/08 01:43:01;;;;;;;12.50;9.75;;;17.40;99.90;;;;;;5034532;28;20048;-64
2023/09/08 01:45:26;;;;;;;14.68;9.27;;;17.30;99.90;;;;;;5051489;28;20413;-64
2023/09/08 01:47:52;;;;;;;11.90;10.38;;;17.30;99.90;;;;;;5051955;28;20053;-64
2023/09/08 01:50:22;;;;;;;11.38;9.70;;;17.30;99.90;;;;;;5051492;28;20381;-64
2023/09/08 01:52:48;;;;;;;12.10;9.85;;;17.30;99.90;;;;;;5051553;28;20057;-64
2023/09/08 01:55:16;;;;;;;13.00;9.25;;;17.20;99.90;;;;;;5052162;28;20041;-64
2023/09/08 01:57:41;;;;;;;11.55;9.90;;;17.20;99.90;;;;;;5034060;28;20044;-65
2023/09/08 02:00:08;;;;;;;11.88;9.38;;;17.20;99.90;;;;;;5032676;28;20057;-65
2023/09/08 02:02:33;;;;;;;12.85;10.45;;;17.20;99.90;;;;;;5050375;28;20040;-65
2023/09/08 02:04:59;;;;;;;13.05;11.02;;;17.20;99.90;;;;;;5033837;28;20045;-65
2023/09/08 02:07:25;;;;;;;11.95;10.50;;;17.10;99.90;;;;;;5033405;28;20044;-65
2023/09/08 02:09:50;;;;;;;12.65;8.77;;;17.10;99.90;;;;;;5051868;28;20041;-65
2023/09/08 02:12:16;;;;;;;16.65;9.75;;;17.10;99.90;;;;;;5033622;28;20092;-65
2023/09/08 02:14:42;;;;;;;15.20;11.40;;;17.00;99.90;;;;;;5050939;28;20091;-65
2023/09/08 02:17:08;;;;;;;13.82;11.70;;;17.00;99.90;;;;;;5017126;28;20124;-65
2023/09/08 02:19:33;;;;;;;11.25;10.02;;;17.00;99.90;;;;;;5017851;28;20550;-65
2023/09/08 02:21:59;;;;;;;14.13;10.20;;;17.00;99.90;;;;;;5051563;28;20124;-65
2023/09/08 02:24:25;;;;;;;17.92;10.82;;;16.90;99.90;;;;;;5051076;28;20033;-65
2023/09/08 02:26:50;;;;;;;13.75;10.50;;;16.90;99.90;;;;;;5033892;28;20478;-65
2023/09/08 02:29:16;;;;;;;14.02;11.40;;;16.90;99.90;;;;;;5033139;28;20125;-65
2023/09/08 02:31:42;;;;;;;14.85;11.30;;;16.90;99.90;;;;;;5034900;28;20037;-65
2023/09/08 02:34:07;;;;;;;11.15;9.98;;;16.90;99.90;;;;;;5037006;28;20110;-65
2023/09/08 02:36:33;;;;;;;13.75;9.98;;;16.90;99.90;;;;;;5037880;28;20124;-65
2023/09/08 02:38:59;;;;;;;13.90;10.45;;;16.80;99.90;;;;;;5055754;28;20429;-65
2023/09/08 02:41:24;;;;;;;12.20;10.15;;;16.90;99.90;;;;;;5054570;28;20136;-65
2023/09/08 02:43:50;;;;;;;12.10;9.40;;;16.80;99.90;;;;;;5037671;28;20075;-65
2023/09/08 02:46:16;;;;;;;15.13;10.52;;;16.80;99.90;;;;;;5055317;28;20449;-65
2023/09/08 02:48:41;;;;;;;12.35;10.07;;;16.80;99.90;;;;;;5032755;28;20103;-65
2023/09/08 02:51:07;;;;;;;14.05;11.60;;;16.80;99.90;;;;;;5035482;28;20042;-65
2023/09/08 02:53:33;;;;;;;12.85;10.55;;;16.80;99.90;;;;;;5017672;28;20049;-65
2023/09/08 02:55:59;;;;;;;15.60;11.38;;;16.80;99.90;;;;;;5017069;28;20079;-65
2023/09/08 02:58:26;;;;;;;12.05;10.70;;;16.70;99.90;;;;;;5017181;28;20475;-65
2023/09/08 03:00:52;;;;;;;12.65;10.18;;;16.70;99.90;;;;;;5035006;28;20048;-65
2023/09/08 03:03:21;;;;;;;12.30;10.77;;;16.70;99.90;;;;;;5033187;28;20041;-65
2023/09/08 03:05:47;;;;;;;14.70;11.05;;;16.70;99.90;;;;;;5034006;28;20056;-65
2023/09/08 03:08:12;;;;;;;16.38;12.18;;;16.60;99.90;;;;;;5033595;28;20037;-65
2023/09/08 03:10:38;;;;;;;13.15;10.90;;;16.60;99.90;;;;;;5032703;28;20124;-65
2023/09/08 03:13:07;;;;;;;13.00;11.15;;;16.60;99.90;;;;;;5033787;28;20128;-65
2023/09/08 03:15:34;;;;;;;15.98;13.07;;;16.60;99.90;;;;;;5033917;28;20371;-65
2023/09/08 03:18:00;;;;;;;12.90;10.65;;;16.50;99.90;;;;;;5034403;28;20032;-65
2023/09/08 03:20:27;;;;;;;14.65;12.15;;;16.50;99.90;;;;;;5034061;28;20434;-65
2023/09/08 03:22:53;;;;;;;13.52;12.13;;;16.50;99.90;;;;;;5033381;28;20109;-65
2023/09/08 03:25:19;;;;;;;13.98;12.45;;;16.50;99.90;;;;;;5033950;28;20195;-65
2023/09/08 03:27:44;;;;;;;14.38;12.23;;;16.50;99.90;;;;;;5034630;28;20033;-65
2023/09/08 03:30:11;;;;;;;18.05;11.80;;;16.50;99.90;;;;;;5034622;28;20056;-65
2023/09/08 03:32:37;;;;;;;13.27;11.07;;;16.50;99.90;;;;;;5032351;28;20372;-65
2023/09/08 03:35:07;;;;;;;16.95;12.07;;;16.40;99.90;;;;;;5033292;28;20034;-65
2023/09/08 03:37:36;;;;;;;16.00;12.88;;;16.40;99.90;;;;;;5016063;28;20037;-65
2023/09/08 03:40:05;;;;;;;15.85;13.05;;;16.40;99.90;;;;;;5034793;28;20033;-65
2023/09/08 03:42:31;;;;;;;12.95;10.70;;;16.40;99.90;;;;;;5032856;28;20049;-65
2023/09/08 03:44:56;;;;;;;17.23;13.38;;;16.40;99.90;;;;;;5033302;28;20044;-65
2023/09/08 03:47:22;;;;;;;17.27;15.10;;;16.40;99.90;;;;;;5042990;28;20076;-65
2023/09/08 03:49:48;;;;;;;16.15;13.82;;;16.40;99.90;;;;;;5019211;28;20468;-65
2023/09/08 03:52:13;;;;;;;15.05;12.10;;;16.30;99.90;;;;;;5035693;28;20036;-65
2023/09/08 03:54:39;;;;;;;14.00;12.45;;;16.30;99.90;;;;;;5019663;28;20041;-65
2023/09/08 03:57:05;;;;;;;15.68;13.93;;;16.30;99.90;;;;;;5020254;28;20532;-65
2023/09/08 03:59:31;;;;;;;16.80;14.45;;;16.30;99.90;;;;;;5034782;28;20037;-65
2023/09/08 04:01:56;;;;;;;17.10;13.63;;;16.30;99.90;;;;;;5054282;28;20095;-65
2023/09/08 04:04:22;;;;;;;15.45;12.27;;;16.20;99.90;;;;;;5054037;28;20097;-65
2023/09/08 04:06:48;;;;;;;15.77;13.52;;;16.20;99.90;;;;;;5052939;28;20045;-65
2023/09/08 04:09:14;;;;;;;15.57;12.63;;;16.20;99.90;;;;;;5036084;28;20048;-65
2023/09/08 04:11:41;;;;;;;18.05;13.85;;;16.20;99.90;;;;;;5053475;28;20040;-65
2023/09/08 04:14:07;;;;;;;18.35;15.10;;;16.20;99.90;;;;;;5018487;28;20120;-65
2023/09/08 04:16:32;;;;;;;18.13;16.23;;;16.10;99.90;;;;;;5019510;28;20128;-65
2023/09/08 04:18:58;;;;;;;16.92;15.23;;;16.10;99.90;;;;;;5036119;28;20060;-65
2023/09/08 04:21:23;;;;;;;16.65;13.80;;;16.10;99.90;;;;;;5052673;28;20040;-65
2023/09/08 04:23:49;;;;;;;16.58;14.57;;;16.10;99.90;;;;;;5035436;28;20041;-65
2023/09/08 04:26:15;;;;;;;16.25;13.73;;;16.10;99.90;;;;;;5035701;28;20485;-66
2023/09/08 04:28:41;;;;;;;18.05;15.65;;;16.10;99.90;;;;;;5035306;28;20128;-66
2023/09/08 04:31:06;;;;;;;18.42;15.52;;;16.10;99.90;;;;;;5053607;28;20486;-66
2023/09/08 04:33:32;;;;;;;18.17;16.27;;;16.00;99.90;;;;;;5053214;28;20052;-66
2023/09/08 04:35:58;;;;;;;17.83;13.73;;;16.00;99.90;;;;;;5034201;28;20107;-66
2023/09/08 04:38:23;;;;;;;18.52;16.20;;;15.90;99.90;;;;;;5035389;28;20045;-65
2023/09/08 04:40:49;;;;;;;17.15;14.70;;;15.90;99.90;;;;;;5052502;28;20489;-65
2023/09/08 04:43:15;;;;;;;19.05;16.13;;;15.90;99.90;;;;;;5053554;28;20090;-65
2023/09/08 04:45:41;;;;;;;16.63;14.80;;;15.90;99.90;;;;;;5035483;28;20103;-65
2023/09/08 04:48:07;;;;;;;22.33;15.60;;;15.90;99.90;;;;;;5034282;28;20486;-65
2023/09/08 04:50:32;;;;;;;17.98;16.08;;;15.90;99.90;;;;;;5053067;28;20048;-65
2023/09/08 04:52:58;;;;;;;17.58;13.85;;;15.90;99.90;;;;;;5035400;28;20045;-65
2023/09/08 04:55:24;;;;;;;25.98;16.75;;;15.90;99.90;;;;;;5051164;28;20119;-65
2023/09/08 04:57:50;;;;;;;18.80;16.00;;;15.80;99.90;;;;;;5034409;28;20040;-65
2023/09/08 05:00:16;;;;;;;17.83;16.02;;;15.80;99.90;;;;;;5053225;28;20421;-65
2023/09/08 05:02:41;;;;;;;17.52;15.57;;;15.80;99.90;;;;;;5034134;28;20037;-65
2023/09/08 05:05:07;;;;;;;19.25;15.48;;;15.80;99.90;;;;;;5034942;28;20083;-65
2023/09/08 05:07:33;;;;;;;19.27;16.08;;;15.80;99.90;;;;;;5052950;28;20036;-65
2023/09/08 05:09:59;;;;;;;18.25;15.80;;;15.80;99.90;;;;;;5051722;28;20040;-65
2023/09/08 05:12:24;;;;;;;19.40;15.52;;;15.70;99.90;;;;;;5034535;28;20158;-69
2023/09/08 05:14:55;;;;;;;17.90;14.30;;;15.70;99.90;;;;;;5035011;28;20025;-68
2023/09/08 05:17:21;;;;;;;16.17;12.50;;;15.70;99.90;;;;;;5034043;28;20041;-68
2023/09/08 05:19:47;;;;;;;19.15;16.00;;;15.70;99.90;;;;;;5034601;28;20068;-69
2023/09/08 05:22:13;;;;;;;16.90;14.90;;;15.70;99.90;;;;;;5034706;28;20490;-69
2023/09/08 05:24:38;;;;;;;17.17;15.35;;;15.70;99.90;;;;;;5051805;28;20444;-69
2023/09/08 05:27:04;;;;;;;17.38;14.73;;;15.70;99.90;;;;;;5053007;28;20044;-69
2023/09/08 05:29:30;;;;;;;15.50;12.40;;;15.80;99.90;;;;;;5034344;28;20095;-68
2023/09/08 05:31:55;;;;;;;17.77;15.45;;;15.80;99.90;;;;;;5052029;28;20106;-69
2023/09/08 05:34:21;;;;;;;16.58;13.32;;;15.80;99.90;;;;;;5034267;28;20410;-68
2023/09/08 05:36:47;;;;;;;18.58;14.32;;;15.80;99.90;;;;;;5017458;28;20116;-68
2023/09/08 05:39:15;;;;;;;16.20;13.57;;;15.80;99.90;;;;;;5033496;28;20452;-69
2023/09/08 05:41:41;;;;;;;16.52;14.60;;;15.80;99.90;;;;;;5034328;28;20500;-68
2023/09/08 05:44:06;;;;;;;18.42;14.55;;;15.90;99.90;;;;;;5017248;28;20037;-68
2023/09/08 05:46:32;;;;;;;18.10;14.77;;;15.90;99.90;;;;;;5052208;28;20486;-68
2023/09/08 05:48:58;;;;;;;17.08;14.60;;;15.90;99.90;;;;;;5051943;28;20056;-68
2023/09/08 05:51:23;;;;;;;20.15;14.90;;;15.90;99.90;;;;;;5033803;28;20049;-68
2023/09/08 05:53:49;;;;;;;16.83;14.38;;;16.00;99.90;;;;;;5033962;28;20049;-68
2023/09/08 05:56:15;;;;;;;17.58;14.18;;;16.00;99.90;;;;;;5051970;28;20049;-68
2023/09/08 05:58:40;;;;;;;15.45;13.80;;;16.10;99.90;;;;;;5033490;28;20048;-68
2023/09/08 06:01:07;;;;;;;17.40;14.60;;;16.10;99.90;;;;;;5033907;28;20124;-68
2023/09/08 06:03:32;;;;;;;16.77;14.35;;;16.20;99.90;;;;;;5052016;28;20098;-68
2023/09/08 06:05:58;;;;;;;14.30;12.38;;;16.20;99.90;;;;;;5033227;28;20044;-67
2023/09/08 06:08:24;;;;;;;16.02;13.68;;;16.30;99.90;;;;;;5051422;28;20041;-68
2023/09/08 06:10:50;;;;;;;19.33;14.18;;;16.30;99.90;;;;;;5048867;28;20053;-68
2023/09/08 06:13:16;;;;;;;16.35;12.52;;;16.40;99.90;;;;;;5013429;28;20126;-68
2023/09/08 06:15:41;;;;;;;20.65;14.27;;;16.50;99.90;;;;;;5049332;28;20073;-68
2023/09/08 06:18:08;;;;;;;16.13;13.73;;;16.50;99.90;;;;;;5031177;28;20506;-68
2023/09/08 06:20:33;;;;;;;17.55;13.43;;;16.60;99.90;;;;;;5049001;28;20427;-68
2023/09/08 06:22:59;;;;;;;17.92;14.07;;;16.60;99.90;;;;;;5031684;28;20076;-67
2023/09/08 06:25:26;;;;;;;16.42;12.88;;;16.70;99.90;;;;;;5032087;28;20975;-68
2023/09/08 06:27:51;;;;;;;15.13;11.20;;;16.80;99.90;;;;;;5047484;28;20041;-68
2023/09/08 06:30:18;;;;;;;14.85;11.55;;;16.90;99.90;;;;;;5015235;28;20245;-67
2023/09/08 06:32:43;;;;;;;15.73;11.27;;;17.00;99.90;;;;;;5030823;28;20052;-67
2023/09/08 06:35:09;;;;;;;15.63;12.65;;;17.10;99.90;;;;;;5030662;28;20067;-66
2023/09/08 06:37:36;;;;;;;24.13;13.10;;;17.10;99.90;;;;;;5049056;28;20406;-66
2023/09/08 06:40:03;;;;;;;19.83;13.77;;;17.20;99.90;;;;;;5015200;28;20576;-66
2023/09/08 06:42:29;;;;;;;19.83;14.73;;;17.30;99.90;;;;;;5047866;28;20082;-66
2023/09/08 06:44:54;;;;;;;22.60;16.23;;;17.40;99.90;;;;;;5031148;28;20041;-66
2023/09/08 06:47:20;;;;;;;21.83;15.63;;;17.50;99.90;;;;;;5048096;28;20076;-66
2023/09/08 06:49:47;;;;;;;25.17;15.50;;;17.60;99.90;;;;;;5049466;28;20041;-67
2023/09/08 06:52:12;;;;;;;21.13;14.75;;;17.70;99.90;;;;;;5031399;28;20490;-67
2023/09/08 06:54:38;;;;;;;18.75;15.02;;;17.90;99.90;;;;;;5048075;28;20049;-67
2023/09/08 06:57:04;;;;;;;16.77;12.45;;;18.00;99.90;;;;;;5049222;28;20072;-66
2023/09/08 06:59:29;;;;;;;18.20;13.35;;;18.10;99.90;;;;;;5031065;28;20048;-67
2023/09/08 07:01:55;;;;;;;18.35;12.00;;;18.20;99.90;;;;;;5048467;28;20080;-66
2023/09/08 07:04:21;;;;;;;14.15;11.52;;;18.30;99.90;;;;;;5030945;28;20048;-66
2023/09/08 07:06:47;;;;;;;15.57;11.48;;;18.30;99.90;;;;;;5049046;28;20037;-66
2023/09/08 07:09:13;;;;;;;14.48;12.15;;;18.40;99.90;;;;;;5030325;28;20470;-67
2023/09/08 07:11:38;;;;;;;18.88;12.90;;;18.50;99.90;;;;;;5030477;28;20044;-67
2023/09/08 07:14:04;;;;;;;15.23;10.55;;;18.60;99.90;;;;;;5030799;28;20106;-66
2023/09/08 07:16:30;;;;;;;16.05;11.50;;;18.60;99.90;;;;;;5029246;28;20060;-66
2023/09/08 07:18:56;;;;;;;12.68;10.43;;;18.80;99.90;;;;;;5032356;28;20041;-67
2023/09/08 07:21:21;;;;;;;16.10;10.55;;;18.90;99.90;;;;;;5034822;28;20036;-67
2023/09/08 07:23:47;;;;;;;15.90;12.32;;;19.00;99.90;;;;;;5051319;28;20041;-66
2023/09/08 07:26:13;;;;;;;13.10;10.95;;;19.10;99.90;;;;;;5024973;28;20111;-66
2023/09/08 07:28:39;;;;;;;13.27;9.48;;;19.20;99.90;;;;;;5012509;28;20135;-67
2023/09/08 07:31:06;;;;;;;13.63;9.70;;;19.30;99.90;;;;;;5040598;28;20751;-67
2023/09/08 07:33:31;;;;;;;16.00;9.90;;;19.40;99.90;;;;;;5051882;28;20048;-66
2023/09/08 07:35:57;;;;;;;12.02;9.88;;;19.50;99.90;;;;;;5051542;28;20214;-67
2023/09/08 07:38:23;;;;;;;12.70;9.80;;;19.60;99.90;;;;;;5033687;28;20056;-67
2023/09/08 07:40:48;;;;;;;14.23;11.15;;;19.60;99.90;;;;;;5051864;28;20140;-67
2023/09/08 07:43:14;;;;;;;11.63;9.48;;;19.70;99.90;;;;;;5052033;28;20036;-67
2023/09/08 07:45:40;;;;;;;14.30;9.57;;;19.80;99.90;;;;;;5033083;28;20059;-66
2023/09/08 07:48:06;;;;;;;11.57;9.48;;;19.90;99.90;;;;;;5030552;28;20065;-67
2023/09/08 07:50:32;;;;;;;12.52;10.52;;;20.00;99.90;;;;;;5030343;28;20053;-67
2023/09/08 07:52:58;;;;;;;14.93;9.90;;;20.10;99.90;;;;;;5031791;28;20045;-68
2023/09/08 07:55:27;;;;;;;12.20;9.88;;;20.20;99.90;;;;;;5031019;28;20095;-67
2023/09/08 07:57:53;;;;;;;15.10;9.60;;;20.40;99.90;;;;;;5030013;28;20045;-67
2023/09/08 08:00:19;;;;;;;12.25;9.82;;;20.40;99.90;;;;;;5030105;28;20049;-67
2023/09/08 08:02:54;;;;;;;10.93;8.60;;;20.50;99.90;;;;;;5030741;28;20045;-67
2023/09/08 08:05:20;;;;;;;12.75;9.20;;;20.60;99.90;;;;;;5012864;28;20491;-67
2023/09/08 08:07:46;;;;;;;11.20;7.93;;;20.70;99.90;;;;;;5030194;28;20116;-67
2023/09/08 08:10:13;;;;;;;11.98;8.93;;;20.80;99.90;;;;;;5030050;28;20125;-67
2023/09/08 08:12:40;;;;;;;12.50;8.98;;;20.90;99.90;;;;;;5029324;28;20352;-67
2023/09/08 08:15:06;;;;;;;10.07;8.52;;;21.00;99.90;;;;;;5031363;28;20048;-66
2023/09/08 08:17:32;;;;;;;11.48;9.65;;;21.10;99.90;;;;;;5013224;28;20041;-67
2023/09/08 08:20:40;;;;;;;13.75;9.07;;;21.20;99.90;;;;;;5029728;28;20441;-66
2023/09/08 08:22:46;;;;;;;14.25;10.18;;;21.30;99.90;;;;;;5024289;28;20053;-67
2023/09/08 08:25:12;;;;;;;10.75;8.73;;;21.30;99.90;;;;;;5029018;28;20045;-66
2023/09/08 08:27:40;;;;;;;13.60;9.00;;;21.40;99.90;;;;;;5027387;28;20057;-67
2023/09/08 08:30:06;;;;;;;10.95;9.13;;;21.50;99.90;;;;;;5029222;28;20037;-66
2023/09/08 08:32:33;;;;;;;11.63;10.02;;;21.60;99.90;;;;;;5029392;28;20128;-67
2023/09/08 08:34:59;;;;;;;9.85;8.52;;;21.70;99.90;;;;;;5030643;28;20041;-67
2023/09/08 08:37:25;;;;;;;11.73;8.85;;;21.80;99.90;;;;;;5029635;28;20044;-66
2023/09/08 08:39:51;;;;;;;10.85;7.82;;;21.90;99.90;;;;;;5030563;28;20053;-67
2023/09/08 08:42:17;;;;;;;11.63;8.15;;;22.00;99.90;;;;;;5029985;28;20445;-67
2023/09/08 08:44:44;;;;;;;10.73;7.95;;;22.10;99.90;;;;;;5029015;28;20049;-67
2023/09/08 08:47:10;;;;;;;13.48;8.68;;;22.10;99.90;;;;;;5028284;28;20072;-67
2023/09/08 08:49:38;;;;;;;11.52;8.02;;;22.20;99.90;;;;;;5030679;28;20490;-67
2023/09/08 08:52:07;;;;;;;9.63;8.00;;;22.20;99.90;;;;;;5029543;28;20112;-66
2023/09/08 08:54:39;;;;;;;12.93;9.32;;;22.30;99.90;;;;;;5028780;28;20487;-67
2023/09/08 08:57:06;;;;;;;11.77;8.48;;;22.40;99.90;;;;;;5028773;28;20568;-66
2023/09/08 08:59:32;;;;;;;12.43;8.15;;;22.50;99.90;;;;;;5029304;28;20390;-67
2023/09/08 09:01:59;;;;;;;8.77;7.65;;;22.60;99.90;;;;;;5024194;28;20483;-67
2023/09/08 09:04:26;;;;;;;10.95;7.75;;;22.60;99.90;;;;;;5030588;28;20042;-67
2023/09/08 09:06:53;;;;;;;11.15;7.45;;;22.70;99.90;;;;;;5029606;28;20144;-67
2023/09/08 09:09:20;;;;;;;11.43;8.13;;;22.80;99.90;;;;;;5029200;28;20114;-67
2023/09/08 09:11:45;;;;;;;8.77;7.40;;;22.90;99.90;;;;;;5028760;28;20045;-67
2023/09/08 09:14:11;;;;;;;10.43;8.10;;;22.90;99.90;;;;;;5012710;28;20643;-68
2023/09/08 09:16:44;;;;;;;9.40;8.27;;;23.00;99.90;;;;;;5029172;28;20052;-68
2023/09/08 09:19:17;;;;;;;9.40;6.88;;;23.10;99.90;;;;;;5028965;28;20121;-69
2023/09/08 09:21:47;;;;;;;10.90;8.13;;;23.20;99.90;;;;;;5029219;28;20052;-68
2023/09/08 09:24:27;;;;;;;13.95;7.95;;;23.20;99.90;;;;;;5027763;28;20494;-68
2023/09/08 09:26:53;;;;;;;12.77;7.47;;;23.20;99.90;;;;;;5029069;28;20115;-68
2023/09/08 09:29:19;;;;;;;11.02;7.40;;;23.30;99.90;;;;;;5028526;28;20152;-68
2023/09/08 09:31:56;;;;;;;10.50;7.13;;;23.30;99.90;;;;;;5029380;28;20052;-67
2023/09/08 09:34:23;;;;;;;10.77;7.38;;;23.40;99.90;;;;;;5028652;28;20049;-68
2023/09/08 09:36:50;;;;;;;13.85;7.22;;;23.50;99.90;;;;;;5024743;28;20088;-66
2023/09/08 09:39:24;;;;;;;9.52;7.68;;;23.50;99.90;;;;;;5019782;28;20033;-66
2023/09/08 09:41:56;;;;;;;9.90;7.40;;;23.50;99.90;;;;;;5028006;28;20129;-66
2023/09/08 09:44:24;;;;;;;9.10;6.82;;;23.60;99.90;;;;;;5021175;28;20083;-67
2023/09/08 09:46:52;;;;;;;9.48;7.18;;;23.60;99.90;;;;;;5009680;28;20049;-68
2023/09/08 09:49:18;;;;;;;11.52;7.32;;;23.70;99.90;;;;;;5001426;28;20063;-68
2023/09/08 09:51:49;;;;;;;9.43;6.53;;;23.80;99.90;;;;;;5048675;28;20144;-67
2023/09/08 09:54:15;;;;;;;11.45;6.28;;;24.00;99.90;;;;;;5031335;28;20485;-67
2023/09/08 09:56:41;;;;;;;10.07;5.97;;;24.10;99.90;;;;;;5045382;28;20072;-68
2023/09/08 09:59:12;;;;;;;11.63;6.93;;;24.10;99.90;;;;;;5029934;28;20043;-68
2023/09/08 10:01:42;;;;;;;10.50;7.05;;;24.20;99.90;;;;;;5033952;28;20053;-68
2023/09/08 10:04:08;;;;;;;9.02;6.40;;;24.20;99.90;;;;;;5016577;28;20044;-68
2023/09/08 10:06:35;;;;;;;9.25;6.78;;;24.40;99.90;;;;;;5032725;28;20136;-69
2023/09/08 10:09:08;;;;;;;9.30;6.80;;;24.40;99.90;;;;;;5034198;28;20132;-68
2023/09/08 10:11:46;;;;;;;10.35;6.70;;;24.50;99.90;;;;;;5017439;28;20135;-68
2023/09/08 10:14:14;;;;;;;8.85;6.20;;;24.50;99.90;;;;;;5033825;28;20049;-68
2023/09/08 10:16:42;;;;;;;8.55;6.57;;;24.60;99.90;;;;;;5033811;28;20045;-72
2023/09/08 10:19:10;;;;;;;9.05;7.00;;;24.70;99.90;;;;;;5032884;28;20087;-72
2023/09/08 10:21:59;;;;;;;7.93;5.50;;;24.70;99.90;;;;;;5017798;28;20382;-68
2023/09/08 10:24:28;;;;;;;8.48;5.88;;;24.80;99.90;;;;;;5033508;28;20458;-70
2023/09/08 10:27:11;;;;;;;7.25;5.63;;;25.00;99.90;;;;;;5013949;28;20033;-70
2023/09/08 10:29:38;;;;;;;8.27;5.28;;;25.10;99.90;;;;;;5033640;28;20423;-70
2023/09/08 10:32:06;;;;;;;7.05;5.47;;;25.20;99.90;;;;;;5051916;28;20111;-71
2023/09/08 10:34:34;;;;;;;8.55;5.70;;;25.30;99.90;;;;;;5031680;28;20044;-70
2023/09/08 10:37:00;;;;;;;10.90;6.20;;;25.30;99.90;;;;;;5051871;28;20445;-70
2023/09/08 10:39:39;;;;;;;8.07;6.05;;;25.40;99.90;;;;;;5026469;28;20127;-70
2023/09/08 10:42:17;;;;;;;7.30;5.55;;;25.50;99.90;;;;;;5025416;28;20051;-70
2023/09/08 10:44:51;;;;;;;8.57;6.80;;;25.60;99.90;;;;;;5050509;28;20040;-70
2023/09/08 10:47:23;;;;;;;;;;;25.70;99.90;;;;;;5033185;28;20379;-69
2023/09/08 10:49:53;;;;;;;9.60;5.75;;;25.70;99.90;;;;;;5031340;28;19917;-70
2023/09/08 10:52:25;;;;;;;10.57;6.43;;;25.80;99.90;;;;;;5051154;28;20399;-67
2023/09/08 10:54:52;;;;;;;9.75;6.20;;;25.80;99.90;;;;;;5052873;28;20037;-68
2023/09/08 10:57:22;;;;;;;8.70;6.18;;;25.80;99.90;;;;;;5053329;28;20451;-67
2023/09/08 11:00:00;;;;;;;10.85;5.97;;;25.90;99.90;;;;;;5053469;28;20076;-66
2023/09/08 11:02:41;;;;;;;8.82;5.60;;;26.00;99.90;;;;;;5054266;28;20437;-66
2023/09/08 11:05:15;;;;;;;12.30;7.22;;;26.00;99.90;;;;;;5037320;28;20048;-66
2023/09/08 11:07:42;;;;;;;8.13;6.68;;;26.00;99.90;;;;;;5054261;28;20107;-67
2023/09/08 11:10:09;;;;;;;9.05;6.25;;;26.10;99.90;;;;;;5054053;28;20528;-67
2023/09/08 11:12:35;;;;;;;8.18;5.63;;;26.10;99.90;;;;;;5052155;28;20064;-64
2023/09/08 11:15:07;;;;;;;7.53;5.78;;;26.20;99.90;;;;;;5049533;28;20075;-65
2023/09/08 11:17:34;;;;;;;7.53;6.00;;;26.20;99.90;;;;;;5036569;28;20033;-65
2023/09/08 11:20:00;;;;;;;11.50;5.93;;;26.30;99.90;;;;;;5020561;28;20124;-61
2023/09/08 11:22:26;;;;;;;10.75;6.22;;;26.40;99.90;;;;;;5054220;28;20044;-62
2023/09/08 11:24:56;;;;;;;10.63;6.55;;;26.50;99.90;;;;;;5037142;28;20045;-61
2023/09/08 11:27:22;;;;;;;9.50;5.90;;;26.50;99.90;;;;;;5053229;28;20429;-62
2023/09/08 11:29:49;;;;;;;9.25;6.97;;;26.50;99.90;;;;;;5053821;28;20099;-62
2023/09/08 11:32:15;;;;;;;7.93;5.30;;;26.60;99.90;;;;;;5054713;28;20037;-62
2023/09/08 11:34:41;;;;;;;9.02;6.10;;;26.60;99.90;;;;;;5036673;28;20047;-62
2023/09/08 11:37:13;;;;;;;8.98;5.65;;;26.80;99.90;;;;;;5035887;28;20045;-62
2023/09/08 11:39:45;;;;;;;7.75;5.10;;;26.90;99.90;;;;;;5036713;28;20037;-62
2023/09/08 11:42:14;;;;;;;7.35;5.18;;;27.00;99.90;;;;;;5054509;28;20084;-62
2023/09/08 11:44:40;;;;;;;6.65;5.13;;;27.10;99.90;;;;;;5035929;28;20053;-62
2023/09/08 11:47:09;;;;;;;7.60;6.15;;;27.10;99.90;;;;;;5052037;28;20450;-62
2023/09/08 11:49:39;;;;;;;7.50;5.50;;;27.10;99.90;;;;;;5019502;28;20049;-62
2023/09/08 11:52:06;;;;;;;7.05;5.28;;;27.20;99.90;;;;;;5053896;28;20076;-62
2023/09/08 11:54:33;;;;;;;9.13;5.28;;;27.30;99.90;;;;;;5019449;28;20101;-62
2023/09/08 11:57:04;;;;;;;7.57;5.25;;;27.30;99.90;;;;;;5053435;28;20044;-62
2023/09/08 11:59:34;;;;;;;9.48;5.30;;;27.40;99.90;;;;;;5035395;28;20044;-62
2023/09/08 12:02:01;;;;;;;7.95;6.18;;;27.40;99.90;;;;;;5036492;28;20037;-62
2023/09/08 12:04:27;;;;;;;9.38;5.57;;;27.40;99.90;;;;;;5034634;28;20041;-62
2023/09/08 12:06:57;;;;;;;7.57;5.50;;;27.40;99.90;;;;;;5035855;28;20051;-62
2023/09/08 12:09:23;;;;;;;8.32;6.25;;;27.50;99.90;;;;;;5036101;28;20072;-62
2023/09/08 12:11:49;;;;;;;7.50;5.70;;;27.50;99.90;;;;;;5053368;28;20044;-62
2023/09/08 12:14:15;;;;;;;7.35;5.32;;;27.50;99.90;;;;;;5035642;28;20401;-62
2023/09/08 12:16:42;;;;;;;10.00;5.78;;;27.60;99.90;;;;;;5035485;28;20041;-62
2023/09/08 12:19:18;;;;;;;8.63;5.78;;;27.70;99.90;;;;;;5024373;28;20053;-62
2023/09/08 12:21:56;;;;;;;7.15;5.32;;;27.70;99.90;;;;;;5017207;28;20045;-62
2023/09/08 12:24:50;;;;;;;11.70;6.10;;;27.70;99.90;;;;;;5034972;28;20037;-62
2023/09/08 12:27:17;;;;;;;;;;;27.80;99.90;;;;;;5036021;28;20048;-62
2023/09/08 12:30:19;;;;;;;7.20;5.68;;;27.70;99.90;;;;;;5053051;28;19923;-63
2023/09/08 12:32:50;;;;;;;7.65;5.80;;;27.70;99.90;;;;;;5027632;28;20056;-62
2023/09/08 12:35:25;;;;;;;9.23;6.28;;;27.70;99.90;;;;;;5035023;28;20045;-62
2023/09/08 12:38:01;;;;;;;8.18;5.80;;;27.90;99.90;;;;;;5035050;28;20048;-62